Accueil
METAR-TAF:

METAR-TAF

Aéroports :

Niederstetten, Allemagne

Base aérienne

latitude: 49-24N, longitude: 009-58E, altitude: 468 m

Observation

Le bulletin a été fait il y a 22 minutes, à 01:20 UTC
Vent 7 kt de sud-est
Température 13°C
Humidité 82%
Pression 1025 hPa
Visibilité 10 km ou plus

METAR: ETHN 170120Z 14007KT 9999 13/10 Q1025 BLU+

Heure: 03:42 (01:42 UTC)

Prévision

Le bulletin a été fait il y a 10 heures et 47 minutes, à 14:55 UTC
Prévision valable du 16 à 14 UTC au 16 à 23 UTC
Vent 5 kt de sud/sud-est
Visibilité: 1500 m
Ciel clair

TAF: ETHN 161455Z 1614/1623 16005KT 9999 NSW SKC CANCEL 1500

Observations et prévisions météorologiques de plus de 4000 aéroports (messages METAR et TAF).

Les stations disponibles sont représentées par des disques jaunes et rouges sur la carte.

Passer la souris dessus pour voir le nom de la station.

Cliquer dessus pour voir les observations et prévisions météorologiques.

Pour changer de carte: cliquez sur les boutons verts avec une croix noire pour zoomer, sur le bouton vert avec un tiret pour effectuer un zoom arrière, ou sur les flèches vertes pour les cartes adjacentes.


METAR-TAF: